sensor_id;sensor_type;location;lat;lon;timestamp;P1;durP1;ratioP1;P2;durP2;ratioP2
68176;SDS011;56478;50.982;7.032;2023-04-24T00:01:43;1.20;;;1.10;;
68176;SDS011;56478;50.982;7.032;2023-04-24T00:04:09;1.30;;;1.30;;
68176;SDS011;56478;50.982;7.032;2023-04-24T00:06:39;1.30;;;1.30;;
68176;SDS011;56478;50.982;7.032;2023-04-24T00:09:14;1.40;;;1.30;;
68176;SDS011;56478;50.982;7.032;2023-04-24T00:11:40;1.20;;;1.20;;
68176;SDS011;56478;50.982;7.032;2023-04-24T00:14:06;1.45;;;1.20;;
68176;SDS011;56478;50.982;7.032;2023-04-24T00:16:32;1.30;;;1.30;;
68176;SDS011;56478;50.982;7.032;2023-04-24T00:18:57;1.20;;;1.20;;
68176;SDS011;56478;50.982;7.032;2023-04-24T00:21:23;1.30;;;1.30;;
68176;SDS011;56478;50.982;7.032;2023-04-24T00:23:50;1.33;;;1.33;;
68176;SDS011;56478;50.982;7.032;2023-04-24T00:26:16;1.17;;;1.17;;
68176;SDS011;56478;50.982;7.032;2023-04-24T00:29:06;1.45;;;1.40;;
68176;SDS011;56478;50.982;7.032;2023-04-24T00:31:31;1.52;;;1.40;;
68176;SDS011;56478;50.982;7.032;2023-04-24T00:33:57;1.20;;;1.20;;
68176;SDS011;56478;50.982;7.032;2023-04-24T00:36:23;2.17;;;1.50;;
68176;SDS011;56478;50.982;7.032;2023-04-24T00:38:52;1.50;;;1.40;;
68176;SDS011;56478;50.982;7.032;2023-04-24T00:41:18;1.35;;;1.35;;
68176;SDS011;56478;50.982;7.032;2023-04-24T00:43:44;1.45;;;1.20;;
68176;SDS011;56478;50.982;7.032;2023-04-24T00:46:10;2.45;;;1.42;;
68176;SDS011;56478;50.982;7.032;2023-04-24T00:48:36;1.40;;;1.35;;
68176;SDS011;56478;50.982;7.032;2023-04-24T00:51:03;1.77;;;1.52;;
68176;SDS011;56478;50.982;7.032;2023-04-24T00:53:29;1.27;;;1.27;;
68176;SDS011;56478;50.982;7.032;2023-04-24T00:55:55;1.35;;;1.35;;
68176;SDS011;56478;50.982;7.032;2023-04-24T00:58:21;1.38;;;1.38;;
68176;SDS011;56478;50.982;7.032;2023-04-24T01:00:50;1.30;;;1.30;;
68176;SDS011;56478;50.982;7.032;2023-04-24T01:03:28;1.65;;;1.55;;
68176;SDS011;56478;50.982;7.032;2023-04-24T01:06:27;1.40;;;1.30;;
68176;SDS011;56478;50.982;7.032;2023-04-24T01:09:39;1.40;;;1.40;;
68176;SDS011;56478;50.982;7.032;2023-04-24T01:12:09;1.98;;;1.67;;
68176;SDS011;56478;50.982;7.032;2023-04-24T01:14:34;1.35;;;1.33;;
68176;SDS011;56478;50.982;7.032;2023-04-24T01:17:03;1.40;;;1.30;;
68176;SDS011;56478;50.982;7.032;2023-04-24T01:19:36;1.30;;;1.30;;
68176;SDS011;56478;50.982;7.032;2023-04-24T01:22:27;1.50;;;1.50;;
68176;SDS011;56478;50.982;7.032;2023-04-24T01:25:18;1.70;;;1.60;;
68176;SDS011;56478;50.982;7.032;2023-04-24T01:27:47;3.15;;;1.60;;
68176;SDS011;56478;50.982;7.032;2023-04-24T01:30:18;1.85;;;1.75;;
68176;SDS011;56478;50.982;7.032;2023-04-24T01:32:47;1.73;;;1.63;;
68176;SDS011;56478;50.982;7.032;2023-04-24T01:35:16;2.78;;;1.70;;
68176;SDS011;56478;50.982;7.032;2023-04-24T01:38:06;1.75;;;1.65;;
68176;SDS011;56478;50.982;7.032;2023-04-24T01:45:55;2.92;;;2.30;;
68176;SDS011;56478;50.982;7.032;2023-04-24T01:48:31;2.85;;;2.30;;
68176;SDS011;56478;50.982;7.032;2023-04-24T01:53:59;2.60;;;2.40;;
68176;SDS011;56478;50.982;7.032;2023-04-24T01:56:53;2.90;;;2.70;;
68176;SDS011;56478;50.982;7.032;2023-04-24T01:59:43;4.03;;;2.65;;
68176;SDS011;56478;50.982;7.032;2023-04-24T02:02:11;3.20;;;3.00;;
68176;SDS011;56478;50.982;7.032;2023-04-24T02:04:57;3.15;;;2.85;;
68176;SDS011;56478;50.982;7.032;2023-04-24T02:07:41;2.90;;;2.70;;
68176;SDS011;56478;50.982;7.032;2023-04-24T02:10:10;4.35;;;2.72;;
68176;SDS011;56478;50.982;7.032;2023-04-24T02:12:36;3.50;;;3.20;;
68176;SDS011;56478;50.982;7.032;2023-04-24T02:15:34;3.10;;;2.90;;
68176;SDS011;56478;50.982;7.032;2023-04-24T02:18:01;4.70;;;3.20;;
68176;SDS011;56478;50.982;7.032;2023-04-24T02:20:26;3.13;;;2.83;;
68176;SDS011;56478;50.982;7.032;2023-04-24T02:22:52;4.00;;;3.05;;
68176;SDS011;56478;50.982;7.032;2023-04-24T02:25:18;6.50;;;3.30;;
68176;SDS011;56478;50.982;7.032;2023-04-24T02:27:44;3.58;;;3.28;;
68176;SDS011;56478;50.982;7.032;2023-04-24T02:30:28;3.85;;;3.10;;
68176;SDS011;56478;50.982;7.032;2023-04-24T02:32:56;3.92;;;3.63;;
68176;SDS011;56478;50.982;7.032;2023-04-24T02:35:32;5.25;;;3.47;;
68176;SDS011;56478;50.982;7.032;2023-04-24T02:38:00;3.95;;;3.53;;
68176;SDS011;56478;50.982;7.032;2023-04-24T02:40:31;3.92;;;3.55;;
68176;SDS011;56478;50.982;7.032;2023-04-24T02:43:00;7.68;;;3.45;;
68176;SDS011;56478;50.982;7.032;2023-04-24T02:45:55;6.13;;;3.53;;
68176;SDS011;56478;50.982;7.032;2023-04-24T02:48:42;4.00;;;3.50;;
68176;SDS011;56478;50.982;7.032;2023-04-24T02:51:08;4.15;;;3.58;;
68176;SDS011;56478;50.982;7.032;2023-04-24T02:53:33;4.25;;;3.80;;
68176;SDS011;56478;50.982;7.032;2023-04-24T02:55:59;5.75;;;3.78;;
68176;SDS011;56478;50.982;7.032;2023-04-24T02:58:31;3.92;;;3.53;;
68176;SDS011;56478;50.982;7.032;2023-04-24T03:01:00;5.38;;;4.10;;
68176;SDS011;56478;50.982;7.032;2023-04-24T03:06:54;4.95;;;3.55;;
68176;SDS011;56478;50.982;7.032;2023-04-24T03:09:29;5.38;;;4.00;;
68176;SDS011;56478;50.982;7.032;2023-04-24T03:12:00;7.28;;;4.05;;
68176;SDS011;56478;50.982;7.032;2023-04-24T03:15:10;4.63;;;4.18;;
68176;SDS011;56478;50.982;7.032;2023-04-24T03:17:37;5.68;;;4.43;;
68176;SDS011;56478;50.982;7.032;2023-04-24T03:23:14;4.60;;;4.18;;
68176;SDS011;56478;50.982;7.032;2023-04-24T03:29:08;5.95;;;4.55;;
68176;SDS011;56478;50.982;7.032;2023-04-24T03:32:03;5.15;;;4.65;;
68176;SDS011;56478;50.982;7.032;2023-04-24T03:34:49;5.20;;;4.30;;
68176;SDS011;56478;50.982;7.032;2023-04-24T03:37:34;7.25;;;5.20;;
68176;SDS011;56478;50.982;7.032;2023-04-24T03:40:08;5.68;;;4.85;;
68176;SDS011;56478;50.982;7.032;2023-04-24T03:42:34;5.43;;;4.20;;
68176;SDS011;56478;50.982;7.032;2023-04-24T03:45:09;6.38;;;4.82;;
68176;SDS011;56478;50.982;7.032;2023-04-24T03:47:35;7.43;;;4.38;;
68176;SDS011;56478;50.982;7.032;2023-04-24T03:50:12;5.35;;;4.70;;
68176;SDS011;56478;50.982;7.032;2023-04-24T03:57:12;6.43;;;4.93;;
68176;SDS011;56478;50.982;7.032;2023-04-24T03:59:49;5.05;;;4.55;;
68176;SDS011;56478;50.982;7.032;2023-04-24T04:02:21;5.80;;;4.68;;
68176;SDS011;56478;50.982;7.032;2023-04-24T04:05:01;4.90;;;4.38;;
68176;SDS011;56478;50.982;7.032;2023-04-24T04:07:35;6.93;;;4.43;;
68176;SDS011;56478;50.982;7.032;2023-04-24T04:10:04;6.78;;;4.32;;
68176;SDS011;56478;50.982;7.032;2023-04-24T04:12:32;6.20;;;4.60;;
68176;SDS011;56478;50.982;7.032;2023-04-24T04:14:58;4.47;;;4.07;;
68176;SDS011;56478;50.982;7.032;2023-04-24T04:17:31;8.30;;;4.22;;
68176;SDS011;56478;50.982;7.032;2023-04-24T04:19:56;4.75;;;4.22;;
68176;SDS011;56478;50.982;7.032;2023-04-24T04:22:22;5.22;;;4.03;;
68176;SDS011;56478;50.982;7.032;2023-04-24T04:24:48;5.40;;;4.47;;
68176;SDS011;56478;50.982;7.032;2023-04-24T04:27:16;4.75;;;3.92;;
68176;SDS011;56478;50.982;7.032;2023-04-24T04:29:43;4.30;;;4.00;;
68176;SDS011;56478;50.982;7.032;2023-04-24T04:32:09;6.30;;;3.95;;
68176;SDS011;56478;50.982;7.032;2023-04-24T04:34:35;4.72;;;4.00;;
68176;SDS011;56478;50.982;7.032;2023-04-24T04:37:03;4.50;;;4.10;;
68176;SDS011;56478;50.982;7.032;2023-04-24T04:39:31;4.47;;;4.07;;
68176;SDS011;56478;50.982;7.032;2023-04-24T04:41:57;5.55;;;4.00;;
68176;SDS011;56478;50.982;7.032;2023-04-24T04:44:23;4.78;;;3.95;;
68176;SDS011;56478;50.982;7.032;2023-04-24T04:46:49;4.55;;;3.95;;
68176;SDS011;56478;50.982;7.032;2023-04-24T04:49:18;4.38;;;3.97;;
68176;SDS011;56478;50.982;7.032;2023-04-24T04:51:49;4.35;;;3.95;;
68176;SDS011;56478;50.982;7.032;2023-04-24T04:54:16;8.10;;;4.32;;
68176;SDS011;56478;50.982;7.032;2023-04-24T04:56:41;5.82;;;4.57;;
68176;SDS011;56478;50.982;7.032;2023-04-24T04:59:07;6.93;;;4.38;;
68176;SDS011;56478;50.982;7.032;2023-04-24T05:01:32;6.38;;;4.60;;
68176;SDS011;56478;50.982;7.032;2023-04-24T05:03:58;7.80;;;4.93;;
68176;SDS011;56478;50.982;7.032;2023-04-24T05:06:24;6.57;;;4.97;;
68176;SDS011;56478;50.982;7.032;2023-04-24T05:08:50;5.13;;;4.50;;
68176;SDS011;56478;50.982;7.032;2023-04-24T05:11:16;4.93;;;4.32;;
68176;SDS011;56478;50.982;7.032;2023-04-24T05:13:50;7.70;;;4.90;;
68176;SDS011;56478;50.982;7.032;2023-04-24T05:16:18;10.55;;;5.47;;
68176;SDS011;56478;50.982;7.032;2023-04-24T05:18:58;7.03;;;5.07;;
68176;SDS011;56478;50.982;7.032;2023-04-24T05:21:30;4.90;;;4.40;;
68176;SDS011;56478;50.982;7.032;2023-04-24T05:24:05;4.50;;;4.05;;
68176;SDS011;56478;50.982;7.032;2023-04-24T05:26:56;4.28;;;3.88;;
68176;SDS011;56478;50.982;7.032;2023-04-24T05:29:22;4.22;;;3.83;;
68176;SDS011;56478;50.982;7.032;2023-04-24T05:31:47;4.35;;;3.95;;
68176;SDS011;56478;50.982;7.032;2023-04-24T05:34:13;4.78;;;4.35;;
68176;SDS011;56478;50.982;7.032;2023-04-24T05:36:39;5.00;;;4.25;;
68176;SDS011;56478;50.982;7.032;2023-04-24T05:39:04;5.50;;;4.03;;
68176;SDS011;56478;50.982;7.032;2023-04-24T05:41:30;4.57;;;4.18;;
68176;SDS011;56478;50.982;7.032;2023-04-24T05:43:55;4.00;;;3.70;;
68176;SDS011;56478;50.982;7.032;2023-04-24T05:46:21;6.35;;;3.90;;
68176;SDS011;56478;50.982;7.032;2023-04-24T05:48:47;5.10;;;4.13;;
68176;SDS011;56478;50.982;7.032;2023-04-24T05:51:12;4.47;;;4.07;;
68176;SDS011;56478;50.982;7.032;2023-04-24T05:53:38;6.57;;;4.63;;
68176;SDS011;56478;50.982;7.032;2023-04-24T05:56:03;4.88;;;4.40;;
68176;SDS011;56478;50.982;7.032;2023-04-24T05:58:29;7.05;;;4.90;;
68176;SDS011;56478;50.982;7.032;2023-04-24T06:00:55;7.90;;;4.70;;
68176;SDS011;56478;50.982;7.032;2023-04-24T06:03:29;5.85;;;4.72;;
68176;SDS011;56478;50.982;7.032;2023-04-24T06:05:58;6.25;;;5.20;;
68176;SDS011;56478;50.982;7.032;2023-04-24T06:08:23;7.05;;;4.88;;
68176;SDS011;56478;50.982;7.032;2023-04-24T06:10:49;5.75;;;4.80;;
68176;SDS011;56478;50.982;7.032;2023-04-24T06:13:15;6.15;;;5.15;;
68176;SDS011;56478;50.982;7.032;2023-04-24T06:15:41;5.78;;;4.85;;
68176;SDS011;56478;50.982;7.032;2023-04-24T06:18:07;5.32;;;4.72;;
68176;SDS011;56478;50.982;7.032;2023-04-24T06:20:35;9.07;;;5.28;;
68176;SDS011;56478;50.982;7.032;2023-04-24T06:23:39;8.05;;;4.70;;
68176;SDS011;56478;50.982;7.032;2023-04-24T06:26:11;5.40;;;4.78;;
68176;SDS011;56478;50.982;7.032;2023-04-24T06:28:47;5.95;;;4.57;;
68176;SDS011;56478;50.982;7.032;2023-04-24T06:33:48;4.90;;;4.10;;
68176;SDS011;56478;50.982;7.032;2023-04-24T06:36:15;6.30;;;5.03;;
68176;SDS011;56478;50.982;7.032;2023-04-24T06:38:41;5.80;;;4.40;;
68176;SDS011;56478;50.982;7.032;2023-04-24T06:41:10;5.07;;;4.35;;
68176;SDS011;56478;50.982;7.032;2023-04-24T06:43:35;5.30;;;3.85;;
68176;SDS011;56478;50.982;7.032;2023-04-24T06:46:01;5.75;;;3.60;;
68176;SDS011;56478;50.982;7.032;2023-04-24T06:48:28;3.00;;;2.80;;
68176;SDS011;56478;50.982;7.032;2023-04-24T06:50:55;3.47;;;2.80;;
68176;SDS011;56478;50.982;7.032;2023-04-24T06:53:21;3.20;;;2.80;;
68176;SDS011;56478;50.982;7.032;2023-04-24T06:55:46;2.42;;;2.22;;
68176;SDS011;56478;50.982;7.032;2023-04-24T06:58:12;3.13;;;2.40;;
68176;SDS011;56478;50.982;7.032;2023-04-24T07:00:43;2.08;;;1.98;;
68176;SDS011;56478;50.982;7.032;2023-04-24T07:06:23;6.38;;;2.40;;
68176;SDS011;56478;50.982;7.032;2023-04-24T07:09:18;2.00;;;1.90;;
68176;SDS011;56478;50.982;7.032;2023-04-24T07:11:47;3.42;;;2.00;;
68176;SDS011;56478;50.982;7.032;2023-04-24T07:14:44;2.20;;;2.03;;
68176;SDS011;56478;50.982;7.032;2023-04-24T07:17:23;1.95;;;1.85;;
68176;SDS011;56478;50.982;7.032;2023-04-24T07:23:25;2.20;;;2.08;;
68176;SDS011;56478;50.982;7.032;2023-04-24T07:25:51;2.95;;;2.00;;
68176;SDS011;56478;50.982;7.032;2023-04-24T07:28:19;3.22;;;2.00;;
68176;SDS011;56478;50.982;7.032;2023-04-24T07:30:49;2.38;;;1.65;;
68176;SDS011;56478;50.982;7.032;2023-04-24T07:33:15;2.40;;;2.20;;
68176;SDS011;56478;50.982;7.032;2023-04-24T07:35:46;2.42;;;2.22;;
68176;SDS011;56478;50.982;7.032;2023-04-24T07:38:12;4.63;;;2.08;;
68176;SDS011;56478;50.982;7.032;2023-04-24T07:40:38;2.15;;;2.00;;
68176;SDS011;56478;50.982;7.032;2023-04-24T07:43:03;2.08;;;1.85;;
68176;SDS011;56478;50.982;7.032;2023-04-24T07:45:29;2.10;;;2.00;;
68176;SDS011;56478;50.982;7.032;2023-04-24T07:47:56;2.00;;;1.90;;
68176;SDS011;56478;50.982;7.032;2023-04-24T07:50:22;1.50;;;1.50;;
68176;SDS011;56478;50.982;7.032;2023-04-24T07:52:50;1.60;;;1.60;;
68176;SDS011;56478;50.982;7.032;2023-04-24T07:55:16;1.30;;;1.30;;
68176;SDS011;56478;50.982;7.032;2023-04-24T07:57:47;1.17;;;1.15;;
68176;SDS011;56478;50.982;7.032;2023-04-24T08:00:15;1.40;;;1.40;;
68176;SDS011;56478;50.982;7.032;2023-04-24T08:02:41;1.60;;;1.50;;
68176;SDS011;56478;50.982;7.032;2023-04-24T08:05:16;1.60;;;1.50;;
68176;SDS011;56478;50.982;7.032;2023-04-24T08:07:42;1.48;;;1.40;;
68176;SDS011;56478;50.982;7.032;2023-04-24T08:10:29;2.17;;;1.50;;
68176;SDS011;56478;50.982;7.032;2023-04-24T08:12:54;1.38;;;1.27;;
68176;SDS011;56478;50.982;7.032;2023-04-24T08:15:20;1.33;;;1.27;;
68176;SDS011;56478;50.982;7.032;2023-04-24T08:17:46;2.50;;;1.52;;
68176;SDS011;56478;50.982;7.032;2023-04-24T08:20:18;2.08;;;1.52;;
68176;SDS011;56478;50.982;7.032;2023-04-24T08:22:55;1.05;;;1.05;;
68176;SDS011;56478;50.982;7.032;2023-04-24T08:25:21;2.45;;;1.40;;
68176;SDS011;56478;50.982;7.032;2023-04-24T08:27:48;1.50;;;1.40;;
68176;SDS011;56478;50.982;7.032;2023-04-24T08:30:19;1.48;;;1.40;;
68176;SDS011;56478;50.982;7.032;2023-04-24T08:35:35;1.30;;;1.30;;
68176;SDS011;56478;50.982;7.032;2023-04-24T08:38:12;1.67;;;1.58;;
68176;SDS011;56478;50.982;7.032;2023-04-24T08:40:41;1.63;;;1.52;;
68176;SDS011;56478;50.982;7.032;2023-04-24T08:43:17;3.10;;;1.70;;
68176;SDS011;56478;50.982;7.032;2023-04-24T08:45:46;1.65;;;1.55;;
68176;SDS011;56478;50.982;7.032;2023-04-24T08:48:12;1.67;;;1.58;;
68176;SDS011;56478;50.982;7.032;2023-04-24T08:50:44;1.80;;;1.55;;
68176;SDS011;56478;50.982;7.032;2023-04-24T08:53:10;1.55;;;1.48;;
68176;SDS011;56478;50.982;7.032;2023-04-24T08:55:37;2.17;;;1.75;;
68176;SDS011;56478;50.982;7.032;2023-04-24T08:58:06;6.75;;;2.03;;
68176;SDS011;56478;50.982;7.032;2023-04-24T09:00:35;3.55;;;2.00;;
68176;SDS011;56478;50.982;7.032;2023-04-24T09:03:05;3.35;;;1.80;;
68176;SDS011;56478;50.982;7.032;2023-04-24T09:05:31;2.22;;;2.08;;
68176;SDS011;56478;50.982;7.032;2023-04-24T09:08:00;2.00;;;1.90;;
68176;SDS011;56478;50.982;7.032;2023-04-24T09:10:29;2.17;;;2.08;;
68176;SDS011;56478;50.982;7.032;2023-04-24T09:13:00;2.50;;;2.30;;
68176;SDS011;56478;50.982;7.032;2023-04-24T09:15:27;2.38;;;2.17;;
68176;SDS011;56478;50.982;7.032;2023-04-24T09:17:53;2.40;;;2.20;;
68176;SDS011;56478;50.982;7.032;2023-04-24T09:20:18;3.08;;;2.75;;
68176;SDS011;56478;50.982;7.032;2023-04-24T09:22:44;2.67;;;2.38;;
68176;SDS011;56478;50.982;7.032;2023-04-24T09:25:10;4.72;;;2.80;;
68176;SDS011;56478;50.982;7.032;2023-04-24T09:27:42;2.85;;;2.65;;
68176;SDS011;56478;50.982;7.032;2023-04-24T09:30:10;2.90;;;2.67;;
68176;SDS011;56478;50.982;7.032;2023-04-24T09:32:39;3.55;;;2.80;;
68176;SDS011;56478;50.982;7.032;2023-04-24T09:35:13;3.90;;;3.08;;
68176;SDS011;56478;50.982;7.032;2023-04-24T09:37:41;4.97;;;3.40;;
68176;SDS011;56478;50.982;7.032;2023-04-24T09:42:45;4.10;;;3.70;;
68176;SDS011;56478;50.982;7.032;2023-04-24T09:45:16;4.22;;;3.35;;
68176;SDS011;56478;50.982;7.032;2023-04-24T09:47:41;4.30;;;3.45;;
68176;SDS011;56478;50.982;7.032;2023-04-24T10:09:51;7.43;;;4.68;;
68176;SDS011;56478;50.982;7.032;2023-04-24T10:19:15;6.72;;;4.90;;
68176;SDS011;56478;50.982;7.032;2023-04-24T10:21:43;6.40;;;4.47;;
68176;SDS011;56478;50.982;7.032;2023-04-24T10:26:40;8.18;;;4.38;;
68176;SDS011;56478;50.982;7.032;2023-04-24T10:29:18;5.22;;;4.15;;
68176;SDS011;56478;50.982;7.032;2023-04-24T10:31:47;6.40;;;3.67;;
68176;SDS011;56478;50.982;7.032;2023-04-24T10:34:13;7.68;;;4.38;;
68176;SDS011;56478;50.982;7.032;2023-04-24T10:36:42;4.88;;;3.60;;
68176;SDS011;56478;50.982;7.032;2023-04-24T10:39:13;5.13;;;3.70;;
68176;SDS011;56478;50.982;7.032;2023-04-24T10:41:40;5.95;;;3.60;;
68176;SDS011;56478;50.982;7.032;2023-04-24T10:44:10;7.68;;;3.50;;
68176;SDS011;56478;50.982;7.032;2023-04-24T10:46:37;5.95;;;3.63;;
68176;SDS011;56478;50.982;7.032;2023-04-24T10:49:07;5.13;;;3.50;;
68176;SDS011;56478;50.982;7.032;2023-04-24T10:54:26;4.93;;;3.55;;
68176;SDS011;56478;50.982;7.032;2023-04-24T10:59:45;5.82;;;3.17;;
68176;SDS011;56478;50.982;7.032;2023-04-24T11:12:37;5.53;;;2.67;;
68176;SDS011;56478;50.982;7.032;2023-04-24T11:15:15;5.75;;;2.80;;
68176;SDS011;56478;50.982;7.032;2023-04-24T11:17:44;2.65;;;2.42;;
68176;SDS011;56478;50.982;7.032;2023-04-24T11:20:11;7.78;;;2.95;;
68176;SDS011;56478;50.982;7.032;2023-04-24T11:22:41;3.95;;;2.53;;
68176;SDS011;56478;50.982;7.032;2023-04-24T11:25:07;8.52;;;2.75;;
68176;SDS011;56478;50.982;7.032;2023-04-24T11:27:40;4.72;;;2.63;;
68176;SDS011;56478;50.982;7.032;2023-04-24T11:30:07;5.03;;;2.58;;
68176;SDS011;56478;50.982;7.032;2023-04-24T11:32:40;4.13;;;2.83;;
68176;SDS011;56478;50.982;7.032;2023-04-24T11:35:22;7.20;;;3.20;;
68176;SDS011;56478;50.982;7.032;2023-04-24T11:37:50;4.78;;;2.55;;
68176;SDS011;56478;50.982;7.032;2023-04-24T11:40:18;6.18;;;2.75;;
68176;SDS011;56478;50.982;7.032;2023-04-24T11:42:46;7.10;;;3.15;;
68176;SDS011;56478;50.982;7.032;2023-04-24T11:47:42;6.45;;;2.95;;
68176;SDS011;56478;50.982;7.032;2023-04-24T11:50:10;7.38;;;3.47;;
68176;SDS011;56478;50.982;7.032;2023-04-24T11:52:37;5.10;;;3.07;;
68176;SDS011;56478;50.982;7.032;2023-04-24T11:55:07;6.68;;;2.95;;
68176;SDS011;56478;50.982;7.032;2023-04-24T11:57:39;9.43;;;3.13;;
68176;SDS011;56478;50.982;7.032;2023-04-24T12:00:14;5.97;;;2.92;;
68176;SDS011;56478;50.982;7.032;2023-04-24T12:02:41;5.60;;;3.20;;
68176;SDS011;56478;50.982;7.032;2023-04-24T12:05:06;7.72;;;3.55;;
68176;SDS011;56478;50.982;7.032;2023-04-24T12:07:36;5.82;;;3.60;;
68176;SDS011;56478;50.982;7.032;2023-04-24T12:10:08;4.68;;;3.40;;
68176;SDS011;56478;50.982;7.032;2023-04-24T12:12:34;4.50;;;3.42;;
68176;SDS011;56478;50.982;7.032;2023-04-24T12:15:00;6.03;;;3.78;;
68176;SDS011;56478;50.982;7.032;2023-04-24T12:17:27;7.47;;;3.63;;
68176;SDS011;56478;50.982;7.032;2023-04-24T12:19:58;9.00;;;4.38;;
68176;SDS011;56478;50.982;7.032;2023-04-24T12:22:52;6.93;;;3.58;;
68176;SDS011;56478;50.982;7.032;2023-04-24T12:25:22;6.00;;;3.90;;
68176;SDS011;56478;50.982;7.032;2023-04-24T12:27:53;6.65;;;4.07;;
68176;SDS011;56478;50.982;7.032;2023-04-24T12:30:21;9.70;;;3.95;;
68176;SDS011;56478;50.982;7.032;2023-04-24T12:32:51;4.75;;;3.60;;
68176;SDS011;56478;50.982;7.032;2023-04-24T12:35:20;6.57;;;3.97;;
68176;SDS011;56478;50.982;7.032;2023-04-24T12:37:48;10.15;;;4.32;;
68176;SDS011;56478;50.982;7.032;2023-04-24T12:40:14;7.10;;;3.60;;
68176;SDS011;56478;50.982;7.032;2023-04-24T12:42:45;6.85;;;3.78;;
68176;SDS011;56478;50.982;7.032;2023-04-24T12:45:12;8.55;;;3.70;;
68176;SDS011;56478;50.982;7.032;2023-04-24T12:47:39;5.25;;;3.30;;
68176;SDS011;56478;50.982;7.032;2023-04-24T12:50:08;4.45;;;3.20;;
68176;SDS011;56478;50.982;7.032;2023-04-24T12:52:35;6.88;;;3.45;;
68176;SDS011;56478;50.982;7.032;2023-04-24T12:55:01;5.82;;;3.25;;
68176;SDS011;56478;50.982;7.032;2023-04-24T12:57:28;8.50;;;3.13;;
68176;SDS011;56478;50.982;7.032;2023-04-24T12:59:55;6.90;;;3.42;;
68176;SDS011;56478;50.982;7.032;2023-04-24T13:02:23;5.65;;;3.35;;
68176;SDS011;56478;50.982;7.032;2023-04-24T13:04:49;7.63;;;3.28;;
68176;SDS011;56478;50.982;7.032;2023-04-24T13:07:15;7.22;;;3.33;;
68176;SDS011;56478;50.982;7.032;2023-04-24T13:09:42;8.00;;;3.38;;
68176;SDS011;56478;50.982;7.032;2023-04-24T13:12:08;7.80;;;3.00;;
68176;SDS011;56478;50.982;7.032;2023-04-24T13:14:35;9.68;;;3.00;;
68176;SDS011;56478;50.982;7.032;2023-04-24T13:17:01;6.30;;;3.10;;
68176;SDS011;56478;50.982;7.032;2023-04-24T13:19:28;5.88;;;3.05;;
68176;SDS011;56478;50.982;7.032;2023-04-24T13:21:54;7.20;;;3.38;;
68176;SDS011;56478;50.982;7.032;2023-04-24T13:24:24;5.18;;;3.65;;
68176;SDS011;56478;50.982;7.032;2023-04-24T13:26:53;5.32;;;3.25;;
68176;SDS011;56478;50.982;7.032;2023-04-24T13:29:19;5.25;;;3.28;;
68176;SDS011;56478;50.982;7.032;2023-04-24T13:31:49;5.95;;;3.10;;
68176;SDS011;56478;50.982;7.032;2023-04-24T13:34:17;5.07;;;3.13;;
68176;SDS011;56478;50.982;7.032;2023-04-24T13:36:43;7.03;;;3.33;;
68176;SDS011;56478;50.982;7.032;2023-04-24T13:39:10;4.13;;;3.05;;
68176;SDS011;56478;50.982;7.032;2023-04-24T13:41:35;6.10;;;3.20;;
68176;SDS011;56478;50.982;7.032;2023-04-24T13:44:02;4.72;;;3.28;;
68176;SDS011;56478;50.982;7.032;2023-04-24T13:46:29;5.43;;;3.28;;
68176;SDS011;56478;50.982;7.032;2023-04-24T13:48:55;7.00;;;2.88;;
68176;SDS011;56478;50.982;7.032;2023-04-24T13:51:21;3.65;;;2.95;;
68176;SDS011;56478;50.982;7.032;2023-04-24T13:53:47;6.45;;;3.05;;
68176;SDS011;56478;50.982;7.032;2023-04-24T13:56:18;4.32;;;3.10;;
68176;SDS011;56478;50.982;7.032;2023-04-24T13:58:44;4.18;;;2.70;;
68176;SDS011;56478;50.982;7.032;2023-04-24T14:01:11;5.38;;;2.80;;
68176;SDS011;56478;50.982;7.032;2023-04-24T14:03:42;5.20;;;2.85;;
68176;SDS011;56478;50.982;7.032;2023-04-24T14:06:10;5.65;;;2.78;;
68176;SDS011;56478;50.982;7.032;2023-04-24T14:08:36;4.32;;;2.97;;
68176;SDS011;56478;50.982;7.032;2023-04-24T14:11:02;4.22;;;2.70;;
68176;SDS011;56478;50.982;7.032;2023-04-24T14:13:28;3.92;;;2.65;;
68176;SDS011;56478;50.982;7.032;2023-04-24T14:15:54;3.65;;;2.63;;
68176;SDS011;56478;50.982;7.032;2023-04-24T14:18:20;2.90;;;2.45;;
68176;SDS011;56478;50.982;7.032;2023-04-24T14:20:45;4.25;;;2.50;;
68176;SDS011;56478;50.982;7.032;2023-04-24T14:23:11;5.18;;;2.53;;
68176;SDS011;56478;50.982;7.032;2023-04-24T14:25:37;8.98;;;2.60;;
68176;SDS011;56478;50.982;7.032;2023-04-24T14:28:02;6.05;;;3.30;;
68176;SDS011;56478;50.982;7.032;2023-04-24T14:30:28;6.22;;;3.30;;
68176;SDS011;56478;50.982;7.032;2023-04-24T14:32:54;5.63;;;2.95;;
68176;SDS011;56478;50.982;7.032;2023-04-24T14:35:19;5.20;;;3.20;;
68176;SDS011;56478;50.982;7.032;2023-04-24T14:37:45;5.03;;;3.00;;
68176;SDS011;56478;50.982;7.032;2023-04-24T14:40:10;4.13;;;2.95;;
68176;SDS011;56478;50.982;7.032;2023-04-24T14:42:36;6.20;;;2.95;;
68176;SDS011;56478;50.982;7.032;2023-04-24T14:45:02;4.93;;;3.00;;
68176;SDS011;56478;50.982;7.032;2023-04-24T14:47:28;7.30;;;3.20;;
68176;SDS011;56478;50.982;7.032;2023-04-24T16:04:22;4.70;;;2.90;;
68176;SDS011;56478;50.982;7.032;2023-04-24T16:07:37;5.47;;;2.63;;
68176;SDS011;56478;50.982;7.032;2023-04-24T16:11:04;3.35;;;2.40;;
68176;SDS011;56478;50.982;7.032;2023-04-24T16:14:26;3.88;;;2.38;;
68176;SDS011;56478;50.982;7.032;2023-04-24T16:24:07;5.13;;;2.70;;
68176;SDS011;56478;50.982;7.032;2023-04-24T16:30:21;4.25;;;2.60;;
68176;SDS011;56478;50.982;7.032;2023-04-24T16:33:09;2.60;;;2.40;;
68176;SDS011;56478;50.982;7.032;2023-04-24T16:35:44;4.97;;;2.80;;
68176;SDS011;56478;50.982;7.032;2023-04-24T16:38:10;4.53;;;2.90;;
68176;SDS011;56478;50.982;7.032;2023-04-24T16:40:39;3.78;;;2.90;;
68176;SDS011;56478;50.982;7.032;2023-04-24T16:43:17;3.38;;;2.70;;
68176;SDS011;56478;50.982;7.032;2023-04-24T16:45:48;3.60;;;2.72;;
68176;SDS011;56478;50.982;7.032;2023-04-24T16:48:16;4.43;;;2.58;;
68176;SDS011;56478;50.982;7.032;2023-04-24T16:50:46;5.22;;;3.03;;
68176;SDS011;56478;50.982;7.032;2023-04-24T16:53:14;5.80;;;2.63;;
68176;SDS011;56478;50.982;7.032;2023-04-24T16:55:40;4.43;;;2.67;;
68176;SDS011;56478;50.982;7.032;2023-04-24T16:58:05;3.63;;;2.55;;
68176;SDS011;56478;50.982;7.032;2023-04-24T17:00:34;3.00;;;2.70;;
68176;SDS011;56478;50.982;7.032;2023-04-24T17:03:03;4.68;;;2.50;;
68176;SDS011;56478;50.982;7.032;2023-04-24T17:05:28;2.17;;;2.08;;
68176;SDS011;56478;50.982;7.032;2023-04-24T17:07:54;5.00;;;2.30;;
68176;SDS011;56478;50.982;7.032;2023-04-24T17:10:30;3.83;;;2.10;;
68176;SDS011;56478;50.982;7.032;2023-04-24T17:12:59;6.10;;;2.22;;
68176;SDS011;56478;50.982;7.032;2023-04-24T17:15:51;2.95;;;2.00;;
68176;SDS011;56478;50.982;7.032;2023-04-24T17:18:17;6.00;;;2.00;;
68176;SDS011;56478;50.982;7.032;2023-04-24T17:20:48;2.00;;;1.90;;
68176;SDS011;56478;50.982;7.032;2023-04-24T17:26:22;2.80;;;2.10;;
68176;SDS011;56478;50.982;7.032;2023-04-24T17:28:53;2.15;;;1.98;;
68176;SDS011;56478;50.982;7.032;2023-04-24T17:31:21;4.60;;;2.10;;
68176;SDS011;56478;50.982;7.032;2023-04-24T17:33:50;2.00;;;1.90;;
68176;SDS011;56478;50.982;7.032;2023-04-24T17:36:26;2.80;;;1.90;;
68176;SDS011;56478;50.982;7.032;2023-04-24T17:38:52;3.15;;;2.03;;
68176;SDS011;56478;50.982;7.032;2023-04-24T17:41:24;2.67;;;2.00;;
68176;SDS011;56478;50.982;7.032;2023-04-24T17:43:49;2.47;;;2.00;;
68176;SDS011;56478;50.982;7.032;2023-04-24T17:46:18;2.45;;;2.10;;
68176;SDS011;56478;50.982;7.032;2023-04-24T17:48:44;2.53;;;1.80;;
68176;SDS011;56478;50.982;7.032;2023-04-24T17:51:09;2.63;;;2.10;;
68176;SDS011;56478;50.982;7.032;2023-04-24T17:53:35;4.22;;;1.85;;
68176;SDS011;56478;50.982;7.032;2023-04-24T20:40:37;2.30;;;1.90;;
68176;SDS011;56478;50.982;7.032;2023-04-24T20:43:08;3.17;;;2.00;;
68176;SDS011;56478;50.982;7.032;2023-04-24T20:46:19;2.40;;;2.20;;